Zion Natl Park, Utah
Current Conditions -  °F | °C
As of 8:55 AM on Sunday 21 Dec 2014 (Local Time) from KAZC Reporting Station
Clear Clear  
Wind Chill: 31°   Ceiling: Unl
Heat Index: 31°   Visibility: 10mi
Dew Point: 31°   Wind: 3mph
Humidity: 98%   Direction: 180°S
Pressure: 30.15"   Gusts: NA
Location:  37.17°N, 113°W
Report Text: KAZC 211555Z AUTO 18003KT 10SM CLR 00/M01 A3015 RMK AO2 T10031006
Loading
Personal Weather Stations






























Interactive Weather Map New forecast layout! Learn more

10-Day Weather Forecast

Advertisements
Track Severe Weather on mobile